sensor_id;sensor_type;location;lat;lon;timestamp;P1;durP1;ratioP1;P2;durP2;ratioP2
21183;SDS011;18176;49.502;11.754;2023-09-19T00:01:54;17.70;;;11.77;;
21183;SDS011;18176;49.502;11.754;2023-09-19T00:05:54;18.52;;;12.30;;
21183;SDS011;18176;49.502;11.754;2023-09-19T00:09:58;19.13;;;11.50;;
21183;SDS011;18176;49.502;11.754;2023-09-19T00:13:59;16.08;;;11.30;;
21183;SDS011;18176;49.502;11.754;2023-09-19T00:18:02;16.67;;;10.77;;
21183;SDS011;18176;49.502;11.754;2023-09-19T00:22:03;15.27;;;10.70;;
21183;SDS011;18176;49.502;11.754;2023-09-19T00:26:04;19.50;;;11.98;;
21183;SDS011;18176;49.502;11.754;2023-09-19T00:30:05;19.10;;;11.20;;
21183;SDS011;18176;49.502;11.754;2023-09-19T00:34:13;15.68;;;10.13;;
21183;SDS011;18176;49.502;11.754;2023-09-19T00:38:14;14.07;;;9.90;;
21183;SDS011;18176;49.502;11.754;2023-09-19T00:42:17;8.43;;;4.38;;
21183;SDS011;18176;49.502;11.754;2023-09-19T00:46:18;4.83;;;3.83;;
21183;SDS011;18176;49.502;11.754;2023-09-19T00:50:22;7.28;;;4.45;;
21183;SDS011;18176;49.502;11.754;2023-09-19T00:54:25;4.88;;;3.72;;
21183;SDS011;18176;49.502;11.754;2023-09-19T00:58:26;6.95;;;5.40;;
21183;SDS011;18176;49.502;11.754;2023-09-19T01:02:30;4.75;;;3.92;;
21183;SDS011;18176;49.502;11.754;2023-09-19T01:06:34;4.25;;;3.10;;
21183;SDS011;18176;49.502;11.754;2023-09-19T01:10:36;8.02;;;3.80;;
21183;SDS011;18176;49.502;11.754;2023-09-19T01:14:50;5.78;;;4.47;;
21183;SDS011;18176;49.502;11.754;2023-09-19T01:19:04;9.75;;;4.43;;
21183;SDS011;18176;49.502;11.754;2023-09-19T01:23:32;8.18;;;5.55;;
21183;SDS011;18176;49.502;11.754;2023-09-19T01:28:08;9.32;;;5.00;;
21183;SDS011;18176;49.502;11.754;2023-09-19T01:32:27;8.05;;;4.72;;
21183;SDS011;18176;49.502;11.754;2023-09-19T01:36:30;10.45;;;4.95;;
21183;SDS011;18176;49.502;11.754;2023-09-19T01:40:37;7.75;;;5.20;;
21183;SDS011;18176;49.502;11.754;2023-09-19T01:44:44;6.70;;;4.53;;
21183;SDS011;18176;49.502;11.754;2023-09-19T01:49:01;6.33;;;4.43;;
21183;SDS011;18176;49.502;11.754;2023-09-19T01:53:19;6.65;;;3.40;;
21183;SDS011;18176;49.502;11.754;2023-09-19T01:57:27;6.68;;;3.22;;
21183;SDS011;18176;49.502;11.754;2023-09-19T02:01:32;3.58;;;2.95;;
21183;SDS011;18176;49.502;11.754;2023-09-19T02:05:37;6.53;;;3.47;;
21183;SDS011;18176;49.502;11.754;2023-09-19T02:09:39;3.30;;;2.80;;
21183;SDS011;18176;49.502;11.754;2023-09-19T02:13:39;3.70;;;2.75;;
21183;SDS011;18176;49.502;11.754;2023-09-19T02:17:41;6.20;;;2.90;;
21183;SDS011;18176;49.502;11.754;2023-09-19T02:21:45;7.67;;;3.30;;
21183;SDS011;18176;49.502;11.754;2023-09-19T02:25:51;3.58;;;3.03;;
21183;SDS011;18176;49.502;11.754;2023-09-19T02:29:54;7.57;;;2.40;;
21183;SDS011;18176;49.502;11.754;2023-09-19T02:33:55;5.75;;;2.65;;
21183;SDS011;18176;49.502;11.754;2023-09-19T02:37:59;4.95;;;2.10;;
21183;SDS011;18176;49.502;11.754;2023-09-19T02:42:03;4.88;;;2.20;;
21183;SDS011;18176;49.502;11.754;2023-09-19T02:46:04;7.10;;;2.20;;
21183;SDS011;18176;49.502;11.754;2023-09-19T02:50:05;3.38;;;2.08;;
21183;SDS011;18176;49.502;11.754;2023-09-19T02:54:10;3.63;;;2.10;;
21183;SDS011;18176;49.502;11.754;2023-09-19T02:58:12;2.97;;;2.13;;
21183;SDS011;18176;49.502;11.754;2023-09-19T03:02:13;4.90;;;2.20;;
21183;SDS011;18176;49.502;11.754;2023-09-19T03:06:13;3.78;;;2.10;;
21183;SDS011;18176;49.502;11.754;2023-09-19T03:10:17;3.67;;;1.75;;
21183;SDS011;18176;49.502;11.754;2023-09-19T03:14:18;4.10;;;1.88;;
21183;SDS011;18176;49.502;11.754;2023-09-19T03:18:19;4.40;;;2.25;;
21183;SDS011;18176;49.502;11.754;2023-09-19T03:22:20;5.03;;;1.90;;
21183;SDS011;18176;49.502;11.754;2023-09-19T03:26:24;2.45;;;1.70;;
21183;SDS011;18176;49.502;11.754;2023-09-19T03:30:24;6.22;;;2.42;;
21183;SDS011;18176;49.502;11.754;2023-09-19T03:34:25;5.20;;;2.60;;
21183;SDS011;18176;49.502;11.754;2023-09-19T03:38:26;4.93;;;2.63;;
21183;SDS011;18176;49.502;11.754;2023-09-19T03:42:30;5.03;;;2.25;;
21183;SDS011;18176;49.502;11.754;2023-09-19T03:46:32;7.53;;;2.20;;
21183;SDS011;18176;49.502;11.754;2023-09-19T03:50:33;5.85;;;2.22;;
21183;SDS011;18176;49.502;11.754;2023-09-19T03:54:33;4.68;;;1.98;;
21183;SDS011;18176;49.502;11.754;2023-09-19T03:58:36;4.20;;;2.28;;
21183;SDS011;18176;49.502;11.754;2023-09-19T04:02:37;2.80;;;1.60;;
21183;SDS011;18176;49.502;11.754;2023-09-19T04:06:38;4.65;;;1.90;;
21183;SDS011;18176;49.502;11.754;2023-09-19T04:10:38;2.85;;;1.58;;
21183;SDS011;18176;49.502;11.754;2023-09-19T04:14:41;2.20;;;2.00;;
21183;SDS011;18176;49.502;11.754;2023-09-19T04:18:41;5.03;;;1.77;;
21183;SDS011;18176;49.502;11.754;2023-09-19T04:22:41;7.20;;;1.70;;
21183;SDS011;18176;49.502;11.754;2023-09-19T04:26:42;3.22;;;1.85;;
21183;SDS011;18176;49.502;11.754;2023-09-19T04:30:45;4.82;;;1.90;;
21183;SDS011;18176;49.502;11.754;2023-09-19T04:34:45;3.88;;;2.05;;
21183;SDS011;18176;49.502;11.754;2023-09-19T04:38:46;4.90;;;2.03;;
21183;SDS011;18176;49.502;11.754;2023-09-19T04:42:52;6.85;;;1.83;;
21183;SDS011;18176;49.502;11.754;2023-09-19T04:46:57;5.03;;;2.15;;
21183;SDS011;18176;49.502;11.754;2023-09-19T04:50:58;3.72;;;1.60;;
21183;SDS011;18176;49.502;11.754;2023-09-19T04:54:59;5.75;;;1.80;;
21183;SDS011;18176;49.502;11.754;2023-09-19T04:59:01;3.95;;;1.75;;
21183;SDS011;18176;49.502;11.754;2023-09-19T05:03:04;3.97;;;1.77;;
21183;SDS011;18176;49.502;11.754;2023-09-19T05:07:05;2.28;;;1.80;;
21183;SDS011;18176;49.502;11.754;2023-09-19T05:11:08;4.28;;;1.60;;
21183;SDS011;18176;49.502;11.754;2023-09-19T05:15:08;3.42;;;1.63;;
21183;SDS011;18176;49.502;11.754;2023-09-19T05:19:11;4.15;;;1.70;;
21183;SDS011;18176;49.502;11.754;2023-09-19T05:23:12;3.30;;;1.92;;
21183;SDS011;18176;49.502;11.754;2023-09-19T05:27:12;4.03;;;1.80;;
21183;SDS011;18176;49.502;11.754;2023-09-19T05:31:13;3.42;;;1.80;;
21183;SDS011;18176;49.502;11.754;2023-09-19T05:35:17;7.03;;;2.10;;
21183;SDS011;18176;49.502;11.754;2023-09-19T05:39:18;3.47;;;1.98;;
21183;SDS011;18176;49.502;11.754;2023-09-19T05:43:19;3.88;;;2.00;;
21183;SDS011;18176;49.502;11.754;2023-09-19T05:47:19;2.72;;;1.60;;
21183;SDS011;18176;49.502;11.754;2023-09-19T05:51:24;3.83;;;1.80;;
21183;SDS011;18176;49.502;11.754;2023-09-19T05:55:25;3.83;;;1.77;;
21183;SDS011;18176;49.502;11.754;2023-09-19T05:59:25;2.10;;;1.58;;
21183;SDS011;18176;49.502;11.754;2023-09-19T06:03:26;4.40;;;1.70;;
21183;SDS011;18176;49.502;11.754;2023-09-19T06:07:31;2.83;;;1.88;;
21183;SDS011;18176;49.502;11.754;2023-09-19T06:11:33;4.05;;;1.85;;
21183;SDS011;18176;49.502;11.754;2023-09-19T06:15:34;2.60;;;1.45;;
21183;SDS011;18176;49.502;11.754;2023-09-19T06:19:34;3.30;;;1.60;;
21183;SDS011;18176;49.502;11.754;2023-09-19T06:23:38;1.95;;;1.40;;
21183;SDS011;18176;49.502;11.754;2023-09-19T06:27:38;1.30;;;1.20;;
21183;SDS011;18176;49.502;11.754;2023-09-19T06:31:40;1.88;;;1.30;;
21183;SDS011;18176;49.502;11.754;2023-09-19T06:35:41;2.30;;;1.60;;
21183;SDS011;18176;49.502;11.754;2023-09-19T06:39:46;3.03;;;1.63;;
21183;SDS011;18176;49.502;11.754;2023-09-19T06:43:46;1.58;;;1.48;;
21183;SDS011;18176;49.502;11.754;2023-09-19T06:47:50;3.10;;;1.63;;
21183;SDS011;18176;49.502;11.754;2023-09-19T06:51:55;6.43;;;1.90;;
21183;SDS011;18176;49.502;11.754;2023-09-19T06:55:59;2.70;;;1.67;;
21183;SDS011;18176;49.502;11.754;2023-09-19T06:59:59;4.18;;;2.00;;
21183;SDS011;18176;49.502;11.754;2023-09-19T07:04:05;1.98;;;1.60;;
21183;SDS011;18176;49.502;11.754;2023-09-19T07:08:06;4.57;;;1.75;;
21183;SDS011;18176;49.502;11.754;2023-09-19T07:12:12;2.97;;;1.80;;
21183;SDS011;18176;49.502;11.754;2023-09-19T07:16:13;3.03;;;1.58;;
21183;SDS011;18176;49.502;11.754;2023-09-19T07:20:24;3.35;;;1.50;;
21183;SDS011;18176;49.502;11.754;2023-09-19T07:24:28;4.90;;;1.40;;
21183;SDS011;18176;49.502;11.754;2023-09-19T07:28:31;2.55;;;1.60;;
21183;SDS011;18176;49.502;11.754;2023-09-19T07:32:33;2.40;;;1.60;;
21183;SDS011;18176;49.502;11.754;2023-09-19T07:36:34;4.22;;;1.70;;
21183;SDS011;18176;49.502;11.754;2023-09-19T07:40:34;2.97;;;1.60;;
21183;SDS011;18176;49.502;11.754;2023-09-19T07:44:37;5.80;;;1.45;;
21183;SDS011;18176;49.502;11.754;2023-09-19T07:48:37;2.20;;;1.38;;
21183;SDS011;18176;49.502;11.754;2023-09-19T07:52:40;1.95;;;1.25;;
21183;SDS011;18176;49.502;11.754;2023-09-19T07:56:41;2.28;;;1.45;;
21183;SDS011;18176;49.502;11.754;2023-09-19T08:00:44;2.67;;;1.23;;
21183;SDS011;18176;49.502;11.754;2023-09-19T08:04:45;2.75;;;1.48;;
21183;SDS011;18176;49.502;11.754;2023-09-19T08:08:45;2.28;;;1.60;;
21183;SDS011;18176;49.502;11.754;2023-09-19T08:12:47;2.65;;;1.50;;
21183;SDS011;18176;49.502;11.754;2023-09-19T08:16:58;2.63;;;1.35;;
21183;SDS011;18176;49.502;11.754;2023-09-19T08:20:59;2.95;;;1.48;;
21183;SDS011;18176;49.502;11.754;2023-09-19T08:24:59;2.13;;;1.40;;
21183;SDS011;18176;49.502;11.754;2023-09-19T08:29:01;4.40;;;1.35;;
21183;SDS011;18176;49.502;11.754;2023-09-19T08:33:06;1.90;;;1.38;;
21183;SDS011;18176;49.502;11.754;2023-09-19T08:37:07;2.15;;;1.40;;
21183;SDS011;18176;49.502;11.754;2023-09-19T08:41:07;2.00;;;1.50;;
21183;SDS011;18176;49.502;11.754;2023-09-19T08:45:09;3.38;;;1.90;;
21183;SDS011;18176;49.502;11.754;2023-09-19T08:49:14;4.75;;;1.70;;
21183;SDS011;18176;49.502;11.754;2023-09-19T08:53:26;3.83;;;1.40;;
21183;SDS011;18176;49.502;11.754;2023-09-19T08:57:35;3.78;;;1.80;;
21183;SDS011;18176;49.502;11.754;2023-09-19T09:01:38;4.32;;;1.75;;
21183;SDS011;18176;49.502;11.754;2023-09-19T09:05:43;2.63;;;1.50;;
21183;SDS011;18176;49.502;11.754;2023-09-19T09:09:47;3.17;;;1.58;;
21183;SDS011;18176;49.502;11.754;2023-09-19T09:13:47;2.58;;;1.60;;
21183;SDS011;18176;49.502;11.754;2023-09-19T09:17:48;2.05;;;1.45;;
21183;SDS011;18176;49.502;11.754;2023-09-19T09:21:52;4.53;;;1.70;;
21183;SDS011;18176;49.502;11.754;2023-09-19T09:25:55;1.80;;;1.50;;
21183;SDS011;18176;49.502;11.754;2023-09-19T09:30:02;2.45;;;1.42;;
21183;SDS011;18176;49.502;11.754;2023-09-19T09:34:04;4.15;;;1.80;;
21183;SDS011;18176;49.502;11.754;2023-09-19T09:38:07;2.13;;;1.60;;
21183;SDS011;18176;49.502;11.754;2023-09-19T09:42:07;3.22;;;1.60;;
21183;SDS011;18176;49.502;11.754;2023-09-19T09:46:08;3.95;;;1.80;;
21183;SDS011;18176;49.502;11.754;2023-09-19T09:50:25;2.75;;;1.40;;
21183;SDS011;18176;49.502;11.754;2023-09-19T09:54:57;2.60;;;1.50;;
21183;SDS011;18176;49.502;11.754;2023-09-19T09:59:02;6.28;;;1.83;;
21183;SDS011;18176;49.502;11.754;2023-09-19T10:03:04;5.57;;;1.65;;
21183;SDS011;18176;49.502;11.754;2023-09-19T10:07:26;2.38;;;1.80;;
21183;SDS011;18176;49.502;11.754;2023-09-19T10:11:35;3.97;;;1.55;;
21183;SDS011;18176;49.502;11.754;2023-09-19T10:15:42;3.88;;;1.60;;
21183;SDS011;18176;49.502;11.754;2023-09-19T10:19:45;2.55;;;1.60;;
21183;SDS011;18176;49.502;11.754;2023-09-19T10:23:54;3.78;;;1.40;;
21183;SDS011;18176;49.502;11.754;2023-09-19T10:28:05;4.82;;;1.50;;
21183;SDS011;18176;49.502;11.754;2023-09-19T10:32:10;3.40;;;1.55;;
21183;SDS011;18176;49.502;11.754;2023-09-19T10:36:16;2.75;;;1.40;;
21183;SDS011;18176;49.502;11.754;2023-09-19T10:40:17;2.63;;;1.50;;
21183;SDS011;18176;49.502;11.754;2023-09-19T10:44:26;3.05;;;1.20;;
21183;SDS011;18176;49.502;11.754;2023-09-19T10:48:31;4.15;;;1.65;;
21183;SDS011;18176;49.502;11.754;2023-09-19T10:52:31;2.85;;;1.50;;
21183;SDS011;18176;49.502;11.754;2023-09-19T10:56:37;3.72;;;1.52;;
21183;SDS011;18176;49.502;11.754;2023-09-19T11:00:53;1.60;;;1.30;;
21183;SDS011;18176;49.502;11.754;2023-09-19T11:05:10;1.40;;;1.30;;
21183;SDS011;18176;49.502;11.754;2023-09-19T11:09:12;5.18;;;2.05;;
21183;SDS011;18176;49.502;11.754;2023-09-19T11:13:26;2.53;;;1.52;;
21183;SDS011;18176;49.502;11.754;2023-09-19T11:17:34;3.17;;;1.60;;
21183;SDS011;18176;49.502;11.754;2023-09-19T11:21:41;2.20;;;1.50;;
21183;SDS011;18176;49.502;11.754;2023-09-19T11:25:55;3.00;;;1.60;;
21183;SDS011;18176;49.502;11.754;2023-09-19T11:30:25;4.13;;;1.40;;
21183;SDS011;18176;49.502;11.754;2023-09-19T11:34:42;2.45;;;1.50;;
21183;SDS011;18176;49.502;11.754;2023-09-19T11:38:57;1.90;;;1.48;;
21183;SDS011;18176;49.502;11.754;2023-09-19T11:47:31;2.70;;;1.83;;
21183;SDS011;18176;49.502;11.754;2023-09-19T11:51:39;4.35;;;1.80;;
21183;SDS011;18176;49.502;11.754;2023-09-19T11:55:42;2.38;;;1.50;;
21183;SDS011;18176;49.502;11.754;2023-09-19T11:59:44;3.50;;;1.85;;
21183;SDS011;18176;49.502;11.754;2023-09-19T12:03:52;3.20;;;1.77;;
21183;SDS011;18176;49.502;11.754;2023-09-19T12:07:58;3.85;;;1.90;;
21183;SDS011;18176;49.502;11.754;2023-09-19T12:12:03;2.00;;;1.70;;
21183;SDS011;18176;49.502;11.754;2023-09-19T12:16:10;4.40;;;2.08;;
21183;SDS011;18176;49.502;11.754;2023-09-19T12:20:18;3.25;;;1.65;;
21183;SDS011;18176;49.502;11.754;2023-09-19T12:24:22;2.30;;;1.60;;
21183;SDS011;18176;49.502;11.754;2023-09-19T12:28:27;2.60;;;1.52;;
21183;SDS011;18176;49.502;11.754;2023-09-19T12:32:35;3.53;;;1.50;;
21183;SDS011;18176;49.502;11.754;2023-09-19T12:36:37;2.60;;;1.60;;
21183;SDS011;18176;49.502;11.754;2023-09-19T12:40:40;2.55;;;1.42;;
21183;SDS011;18176;49.502;11.754;2023-09-19T12:44:41;2.65;;;1.20;;
21183;SDS011;18176;49.502;11.754;2023-09-19T12:48:43;2.38;;;1.40;;
21183;SDS011;18176;49.502;11.754;2023-09-19T12:52:45;4.32;;;1.35;;
21183;SDS011;18176;49.502;11.754;2023-09-19T12:56:52;2.72;;;1.48;;
21183;SDS011;18176;49.502;11.754;2023-09-19T13:00:55;2.67;;;1.50;;
21183;SDS011;18176;49.502;11.754;2023-09-19T13:04:56;3.22;;;1.50;;
21183;SDS011;18176;49.502;11.754;2023-09-19T13:09:07;2.58;;;1.40;;
21183;SDS011;18176;49.502;11.754;2023-09-19T13:17:27;3.85;;;1.55;;
21183;SDS011;18176;49.502;11.754;2023-09-19T13:21:42;2.45;;;1.50;;
21183;SDS011;18176;49.502;11.754;2023-09-19T13:25:46;5.30;;;1.52;;
21183;SDS011;18176;49.502;11.754;2023-09-19T13:29:55;3.60;;;1.50;;
21183;SDS011;18176;49.502;11.754;2023-09-19T13:33:55;2.65;;;1.55;;
21183;SDS011;18176;49.502;11.754;2023-09-19T13:37:55;2.92;;;1.52;;
21183;SDS011;18176;49.502;11.754;2023-09-19T13:41:56;2.08;;;1.50;;
21183;SDS011;18176;49.502;11.754;2023-09-19T13:45:59;2.65;;;1.30;;
21183;SDS011;18176;49.502;11.754;2023-09-19T13:49:59;2.45;;;1.50;;
21183;SDS011;18176;49.502;11.754;2023-09-19T13:54:02;2.22;;;1.25;;
21183;SDS011;18176;49.502;11.754;2023-09-19T13:58:03;2.30;;;1.25;;
21183;SDS011;18176;49.502;11.754;2023-09-19T14:02:06;2.28;;;1.48;;
21183;SDS011;18176;49.502;11.754;2023-09-19T14:06:07;5.07;;;1.30;;
21183;SDS011;18176;49.502;11.754;2023-09-19T14:10:08;2.60;;;1.33;;
21183;SDS011;18176;49.502;11.754;2023-09-19T14:14:10;2.88;;;1.40;;
21183;SDS011;18176;49.502;11.754;2023-09-19T14:18:13;2.22;;;1.30;;
21183;SDS011;18176;49.502;11.754;2023-09-19T14:22:15;3.22;;;1.35;;
21183;SDS011;18176;49.502;11.754;2023-09-19T14:26:15;3.33;;;1.42;;
21183;SDS011;18176;49.502;11.754;2023-09-19T14:30:15;2.60;;;1.52;;
21183;SDS011;18176;49.502;11.754;2023-09-19T14:34:19;3.53;;;1.45;;
21183;SDS011;18176;49.502;11.754;2023-09-19T14:38:19;3.33;;;1.55;;
21183;SDS011;18176;49.502;11.754;2023-09-19T14:42:19;2.75;;;1.38;;
21183;SDS011;18176;49.502;11.754;2023-09-19T14:46:20;4.28;;;1.42;;
21183;SDS011;18176;49.502;11.754;2023-09-19T14:50:24;2.17;;;1.30;;
21183;SDS011;18176;49.502;11.754;2023-09-19T14:54:26;1.65;;;1.17;;
21183;SDS011;18176;49.502;11.754;2023-09-19T14:58:27;1.20;;;1.08;;
21183;SDS011;18176;49.502;11.754;2023-09-19T15:02:27;4.32;;;3.05;;
21183;SDS011;18176;49.502;11.754;2023-09-19T15:06:30;2.03;;;1.33;;
21183;SDS011;18176;49.502;11.754;2023-09-19T15:10:31;1.88;;;1.10;;
21183;SDS011;18176;49.502;11.754;2023-09-19T15:14:31;1.60;;;1.30;;
21183;SDS011;18176;49.502;11.754;2023-09-19T15:18:31;3.60;;;1.50;;
21183;SDS011;18176;49.502;11.754;2023-09-19T15:22:37;3.00;;;1.58;;
21183;SDS011;18176;49.502;11.754;2023-09-19T15:26:38;2.50;;;1.40;;
21183;SDS011;18176;49.502;11.754;2023-09-19T15:30:40;4.57;;;1.60;;
21183;SDS011;18176;49.502;11.754;2023-09-19T15:34:40;3.17;;;1.50;;
21183;SDS011;18176;49.502;11.754;2023-09-19T15:43:03;4.90;;;3.22;;
21183;SDS011;18176;49.502;11.754;2023-09-19T15:47:03;3.72;;;1.38;;
21183;SDS011;18176;49.502;11.754;2023-09-19T15:51:05;3.15;;;1.40;;
21183;SDS011;18176;49.502;11.754;2023-09-19T15:55:11;3.75;;;1.35;;
21183;SDS011;18176;49.502;11.754;2023-09-19T15:59:11;2.00;;;1.38;;
21183;SDS011;18176;49.502;11.754;2023-09-19T16:03:12;5.00;;;2.95;;
21183;SDS011;18176;49.502;11.754;2023-09-19T16:07:14;4.85;;;2.38;;
21183;SDS011;18176;49.502;11.754;2023-09-19T16:11:18;2.63;;;1.50;;
21183;SDS011;18176;49.502;11.754;2023-09-19T16:15:19;3.25;;;1.42;;
21183;SDS011;18176;49.502;11.754;2023-09-19T16:19:19;2.70;;;1.40;;
21183;SDS011;18176;49.502;11.754;2023-09-19T16:23:20;2.80;;;1.50;;
21183;SDS011;18176;49.502;11.754;2023-09-19T16:27:22;3.25;;;1.52;;
21183;SDS011;18176;49.502;11.754;2023-09-19T16:31:23;21.23;;;15.23;;
21183;SDS011;18176;49.502;11.754;2023-09-19T16:35:23;5.50;;;1.98;;
21183;SDS011;18176;49.502;11.754;2023-09-19T16:39:24;6.88;;;3.03;;
21183;SDS011;18176;49.502;11.754;2023-09-19T16:43:27;7.38;;;2.50;;
21183;SDS011;18176;49.502;11.754;2023-09-19T16:47:29;20.83;;;11.02;;
21183;SDS011;18176;49.502;11.754;2023-09-19T16:51:29;4.20;;;1.98;;
21183;SDS011;18176;49.502;11.754;2023-09-19T16:55:30;3.45;;;1.52;;
21183;SDS011;18176;49.502;11.754;2023-09-19T16:59:37;2.33;;;1.38;;
21183;SDS011;18176;49.502;11.754;2023-09-19T17:03:38;3.67;;;1.38;;
21183;SDS011;18176;49.502;11.754;2023-09-19T17:07:39;2.15;;;1.40;;
21183;SDS011;18176;49.502;11.754;2023-09-19T17:11:42;3.72;;;1.50;;
21183;SDS011;18176;49.502;11.754;2023-09-19T17:15:47;5.60;;;1.92;;
21183;SDS011;18176;49.502;11.754;2023-09-19T17:20:00;3.38;;;1.70;;
21183;SDS011;18176;49.502;11.754;2023-09-19T17:24:00;2.63;;;1.60;;
21183;SDS011;18176;49.502;11.754;2023-09-19T17:28:04;4.32;;;1.70;;
21183;SDS011;18176;49.502;11.754;2023-09-19T17:32:07;6.80;;;1.50;;
21183;SDS011;18176;49.502;11.754;2023-09-19T17:36:08;3.58;;;1.60;;
21183;SDS011;18176;49.502;11.754;2023-09-19T17:40:11;4.70;;;1.77;;
21183;SDS011;18176;49.502;11.754;2023-09-19T17:44:12;4.32;;;2.20;;
21183;SDS011;18176;49.502;11.754;2023-09-19T17:48:15;4.70;;;2.13;;
21183;SDS011;18176;49.502;11.754;2023-09-19T17:52:15;2.60;;;2.10;;
21183;SDS011;18176;49.502;11.754;2023-09-19T17:56:16;3.25;;;2.05;;
21183;SDS011;18176;49.502;11.754;2023-09-19T18:00:17;4.72;;;2.13;;
21183;SDS011;18176;49.502;11.754;2023-09-19T18:04:21;4.07;;;2.10;;
21183;SDS011;18176;49.502;11.754;2023-09-19T18:08:22;6.10;;;2.10;;
21183;SDS011;18176;49.502;11.754;2023-09-19T18:12:22;3.03;;;1.77;;
21183;SDS011;18176;49.502;11.754;2023-09-19T18:16:23;2.50;;;1.80;;
21183;SDS011;18176;49.502;11.754;2023-09-19T18:20:27;3.13;;;2.08;;
21183;SDS011;18176;49.502;11.754;2023-09-19T18:24:27;4.55;;;2.00;;
21183;SDS011;18176;49.502;11.754;2023-09-19T18:28:28;6.57;;;2.10;;
21183;SDS011;18176;49.502;11.754;2023-09-19T18:32:29;4.80;;;2.40;;
21183;SDS011;18176;49.502;11.754;2023-09-19T18:36:32;4.45;;;2.67;;
21183;SDS011;18176;49.502;11.754;2023-09-19T18:40:33;8.65;;;5.85;;
21183;SDS011;18176;49.502;11.754;2023-09-19T18:44:34;5.40;;;2.30;;
21183;SDS011;18176;49.502;11.754;2023-09-19T18:48:35;3.88;;;1.90;;
21183;SDS011;18176;49.502;11.754;2023-09-19T18:52:40;3.15;;;1.95;;
21183;SDS011;18176;49.502;11.754;2023-09-19T18:56:41;3.92;;;2.15;;
21183;SDS011;18176;49.502;11.754;2023-09-19T19:00:43;4.63;;;2.00;;
21183;SDS011;18176;49.502;11.754;2023-09-19T19:04:43;4.03;;;2.47;;
21183;SDS011;18176;49.502;11.754;2023-09-19T19:08:46;3.33;;;2.20;;
21183;SDS011;18176;49.502;11.754;2023-09-19T19:12:48;4.00;;;2.38;;
21183;SDS011;18176;49.502;11.754;2023-09-19T19:16:48;5.38;;;2.30;;
21183;SDS011;18176;49.502;11.754;2023-09-19T19:20:56;19.05;;;6.95;;
21183;SDS011;18176;49.502;11.754;2023-09-19T19:25:00;12.32;;;5.20;;
21183;SDS011;18176;49.502;11.754;2023-09-19T19:29:00;11.15;;;4.18;;
21183;SDS011;18176;49.502;11.754;2023-09-19T19:33:01;7.82;;;3.40;;
21183;SDS011;18176;49.502;11.754;2023-09-19T19:37:03;7.15;;;2.70;;
21183;SDS011;18176;49.502;11.754;2023-09-19T19:41:06;7.40;;;3.03;;
21183;SDS011;18176;49.502;11.754;2023-09-19T19:45:07;6.70;;;2.78;;
21183;SDS011;18176;49.502;11.754;2023-09-19T19:49:11;4.30;;;2.28;;
21183;SDS011;18176;49.502;11.754;2023-09-19T19:53:13;6.18;;;2.85;;
21183;SDS011;18176;49.502;11.754;2023-09-19T19:57:17;5.30;;;2.40;;
21183;SDS011;18176;49.502;11.754;2023-09-19T20:01:17;7.55;;;3.53;;
21183;SDS011;18176;49.502;11.754;2023-09-19T20:05:19;8.70;;;3.55;;
21183;SDS011;18176;49.502;11.754;2023-09-19T20:09:19;8.87;;;3.40;;
21183;SDS011;18176;49.502;11.754;2023-09-19T20:13:23;12.90;;;4.53;;
21183;SDS011;18176;49.502;11.754;2023-09-19T20:17:23;10.23;;;3.97;;
21183;SDS011;18176;49.502;11.754;2023-09-19T20:21:25;9.73;;;4.03;;
21183;SDS011;18176;49.502;11.754;2023-09-19T20:25:25;6.13;;;3.47;;
21183;SDS011;18176;49.502;11.754;2023-09-19T20:29:32;10.27;;;4.40;;
21183;SDS011;18176;49.502;11.754;2023-09-19T20:33:34;6.73;;;3.23;;
21183;SDS011;18176;49.502;11.754;2023-09-19T20:37:36;5.50;;;3.13;;
21183;SDS011;18176;49.502;11.754;2023-09-19T20:41:37;6.40;;;3.10;;
21183;SDS011;18176;49.502;11.754;2023-09-19T20:45:40;8.32;;;3.70;;
21183;SDS011;18176;49.502;11.754;2023-09-19T20:49:41;6.13;;;3.20;;
21183;SDS011;18176;49.502;11.754;2023-09-19T20:53:43;14.10;;;8.67;;
21183;SDS011;18176;49.502;11.754;2023-09-19T20:57:45;7.55;;;5.18;;
21183;SDS011;18176;49.502;11.754;2023-09-19T21:01:48;9.60;;;3.60;;
21183;SDS011;18176;49.502;11.754;2023-09-19T21:05:48;5.53;;;2.50;;
21183;SDS011;18176;49.502;11.754;2023-09-19T21:10:03;6.73;;;3.30;;
21183;SDS011;18176;49.502;11.754;2023-09-19T21:14:05;5.00;;;2.73;;
21183;SDS011;18176;49.502;11.754;2023-09-19T21:18:08;6.73;;;3.20;;
21183;SDS011;18176;49.502;11.754;2023-09-19T21:22:09;6.00;;;3.13;;
21183;SDS011;18176;49.502;11.754;2023-09-19T21:26:10;9.87;;;3.17;;
21183;SDS011;18176;49.502;11.754;2023-09-19T21:30:11;8.90;;;3.13;;
21183;SDS011;18176;49.502;11.754;2023-09-19T21:34:16;5.67;;;3.10;;
21183;SDS011;18176;49.502;11.754;2023-09-19T21:38:16;6.23;;;2.70;;
21183;SDS011;18176;49.502;11.754;2023-09-19T21:42:17;5.23;;;2.90;;
21183;SDS011;18176;49.502;11.754;2023-09-19T21:46:17;6.17;;;2.70;;
21183;SDS011;18176;49.502;11.754;2023-09-19T21:50:21;5.53;;;2.73;;
21183;SDS011;18176;49.502;11.754;2023-09-19T21:54:21;5.43;;;2.80;;
21183;SDS011;18176;49.502;11.754;2023-09-19T21:58:22;5.23;;;2.70;;
21183;SDS011;18176;49.502;11.754;2023-09-19T22:02:23;5.87;;;2.60;;
21183;SDS011;18176;49.502;11.754;2023-09-19T22:06:26;5.60;;;2.77;;
21183;SDS011;18176;49.502;11.754;2023-09-19T22:10:26;4.90;;;2.73;;
21183;SDS011;18176;49.502;11.754;2023-09-19T22:14:26;5.07;;;2.60;;
21183;SDS011;18176;49.502;11.754;2023-09-19T22:18:29;5.47;;;2.20;;
21183;SDS011;18176;49.502;11.754;2023-09-19T22:22:32;3.87;;;2.20;;
21183;SDS011;18176;49.502;11.754;2023-09-19T22:26:34;4.70;;;2.50;;
21183;SDS011;18176;49.502;11.754;2023-09-19T22:30:35;3.53;;;2.60;;
21183;SDS011;18176;49.502;11.754;2023-09-19T22:34:41;2.47;;;2.03;;
21183;SDS011;18176;49.502;11.754;2023-09-19T22:38:44;4.53;;;2.53;;
21183;SDS011;18176;49.502;11.754;2023-09-19T22:42:47;3.63;;;2.37;;
21183;SDS011;18176;49.502;11.754;2023-09-19T22:46:47;3.33;;;2.33;;
21183;SDS011;18176;49.502;11.754;2023-09-19T22:50:47;6.00;;;2.67;;
21183;SDS011;18176;49.502;11.754;2023-09-19T22:54:56;4.20;;;2.50;;
21183;SDS011;18176;49.502;11.754;2023-09-19T22:58:58;8.37;;;3.57;;
21183;SDS011;18176;49.502;11.754;2023-09-19T23:03:00;9.80;;;4.20;;
21183;SDS011;18176;49.502;11.754;2023-09-19T23:07:03;6.50;;;3.00;;
21183;SDS011;18176;49.502;11.754;2023-09-19T23:11:08;5.13;;;2.70;;
21183;SDS011;18176;49.502;11.754;2023-09-19T23:15:09;2.73;;;2.40;;
21183;SDS011;18176;49.502;11.754;2023-09-19T23:19:14;3.03;;;2.53;;
21183;SDS011;18176;49.502;11.754;2023-09-19T23:23:19;3.73;;;2.40;;
21183;SDS011;18176;49.502;11.754;2023-09-19T23:27:22;3.40;;;2.50;;
21183;SDS011;18176;49.502;11.754;2023-09-19T23:31:32;5.50;;;3.00;;
21183;SDS011;18176;49.502;11.754;2023-09-19T23:35:34;5.53;;;2.93;;
21183;SDS011;18176;49.502;11.754;2023-09-19T23:39:34;4.87;;;2.70;;
21183;SDS011;18176;49.502;11.754;2023-09-19T23:43:40;3.67;;;2.60;;
21183;SDS011;18176;49.502;11.754;2023-09-19T23:47:42;10.97;;;4.23;;
21183;SDS011;18176;49.502;11.754;2023-09-19T23:51:42;6.30;;;3.87;;
21183;SDS011;18176;49.502;11.754;2023-09-19T23:55:44;5.03;;;3.23;;
21183;SDS011;18176;49.502;11.754;2023-09-19T23:59:47;7.03;;;3.40;;
